sensor_id;sensor_type;location;lat;lon;timestamp;temperature;humidity
17284;DHT22;8760;52.248;20.952;2022-10-16T00:00:55;14.50;99.90
17284;DHT22;8760;52.248;20.952;2022-10-16T00:03:22;14.40;99.90
17284;DHT22;8760;52.248;20.952;2022-10-16T00:05:49;14.40;99.90
17284;DHT22;8760;52.248;20.952;2022-10-16T00:08:16;14.50;1.00
17284;DHT22;8760;52.248;20.952;2022-10-16T00:10:42;14.40;1.00
17284;DHT22;8760;52.248;20.952;2022-10-16T00:13:09;14.40;1.00
17284;DHT22;8760;52.248;20.952;2022-10-16T00:15:37;14.50;1.00
17284;DHT22;8760;52.248;20.952;2022-10-16T00:18:06;14.50;1.00
17284;DHT22;8760;52.248;20.952;2022-10-16T00:20:34;14.50;1.00
17284;DHT22;8760;52.248;20.952;2022-10-16T00:23:02;14.50;1.00
17284;DHT22;8760;52.248;20.952;2022-10-16T00:25:29;14.50;99.90
17284;DHT22;8760;52.248;20.952;2022-10-16T00:27:58;14.60;99.90
17284;DHT22;8760;52.248;20.952;2022-10-16T00:30:25;14.60;99.90
17284;DHT22;8760;52.248;20.952;2022-10-16T00:32:53;14.60;99.90
17284;DHT22;8760;52.248;20.952;2022-10-16T00:35:21;14.60;99.90
17284;DHT22;8760;52.248;20.952;2022-10-16T00:37:48;14.60;99.90
17284;DHT22;8760;52.248;20.952;2022-10-16T00:40:15;14.60;99.90
17284;DHT22;8760;52.248;20.952;2022-10-16T00:42:42;14.60;99.90
17284;DHT22;8760;52.248;20.952;2022-10-16T00:45:10;14.50;75.40
17284;DHT22;8760;52.248;20.952;2022-10-16T00:47:39;14.60;1.00
17284;DHT22;8760;52.248;20.952;2022-10-16T00:50:09;14.60;99.90
17284;DHT22;8760;52.248;20.952;2022-10-16T00:52:41;14.60;1.00
17284;DHT22;8760;52.248;20.952;2022-10-16T00:55:10;14.60;1.00
17284;DHT22;8760;52.248;20.952;2022-10-16T00:57:37;14.50;1.00
17284;DHT22;8760;52.248;20.952;2022-10-16T01:00:08;14.50;99.90
17284;DHT22;8760;52.248;20.952;2022-10-16T01:02:35;14.50;99.90
17284;DHT22;8760;52.248;20.952;2022-10-16T01:05:03;14.50;1.00
17284;DHT22;8760;52.248;20.952;2022-10-16T01:07:36;14.50;99.90
17284;DHT22;8760;52.248;20.952;2022-10-16T01:10:14;14.50;99.90
17284;DHT22;8760;52.248;20.952;2022-10-16T01:12:46;14.40;1.00
17284;DHT22;8760;52.248;20.952;2022-10-16T01:15:21;14.40;1.00
17284;DHT22;8760;52.248;20.952;2022-10-16T01:17:55;14.30;1.00
17284;DHT22;8760;52.248;20.952;2022-10-16T01:20:27;14.30;99.90
17284;DHT22;8760;52.248;20.952;2022-10-16T01:23:07;14.30;99.90
17284;DHT22;8760;52.248;20.952;2022-10-16T01:26:07;14.20;99.90
17284;DHT22;8760;52.248;20.952;2022-10-16T01:28:41;14.20;1.00
17284;DHT22;8760;52.248;20.952;2022-10-16T01:31:09;14.20;1.00
17284;DHT22;8760;52.248;20.952;2022-10-16T01:33:42;14.20;99.90
17284;DHT22;8760;52.248;20.952;2022-10-16T01:36:14;14.20;99.90
17284;DHT22;8760;52.248;20.952;2022-10-16T01:38:44;14.30;99.90
17284;DHT22;8760;52.248;20.952;2022-10-16T01:41:17;14.30;99.90
17284;DHT22;8760;52.248;20.952;2022-10-16T01:43:48;14.30;99.90
17284;DHT22;8760;52.248;20.952;2022-10-16T01:46:18;14.30;99.90
17284;DHT22;8760;52.248;20.952;2022-10-16T01:48:47;14.20;1.00
17284;DHT22;8760;52.248;20.952;2022-10-16T01:51:17;14.10;1.00
17284;DHT22;8760;52.248;20.952;2022-10-16T01:53:48;14.10;1.00
17284;DHT22;8760;52.248;20.952;2022-10-16T01:56:17;14.00;1.00
17284;DHT22;8760;52.248;20.952;2022-10-16T01:58:50;14.00;1.00
17284;DHT22;8760;52.248;20.952;2022-10-16T02:01:21;14.00;1.00
17284;DHT22;8760;52.248;20.952;2022-10-16T02:03:52;13.90;1.00
17284;DHT22;8760;52.248;20.952;2022-10-16T02:06:20;13.90;1.00
17284;DHT22;8760;52.248;20.952;2022-10-16T02:08:48;13.90;1.00
17284;DHT22;8760;52.248;20.952;2022-10-16T02:11:15;13.90;1.00
17284;DHT22;8760;52.248;20.952;2022-10-16T02:13:45;13.90;1.00
17284;DHT22;8760;52.248;20.952;2022-10-16T02:16:14;13.90;1.00
17284;DHT22;8760;52.248;20.952;2022-10-16T02:18:42;14.00;1.00
17284;DHT22;8760;52.248;20.952;2022-10-16T02:21:14;13.90;1.00
17284;DHT22;8760;52.248;20.952;2022-10-16T02:23:48;13.90;1.00
17284;DHT22;8760;52.248;20.952;2022-10-16T02:26:27;13.90;1.00
17284;DHT22;8760;52.248;20.952;2022-10-16T02:28:59;13.90;1.00
17284;DHT22;8760;52.248;20.952;2022-10-16T02:31:31;14.00;1.00
17284;DHT22;8760;52.248;20.952;2022-10-16T02:34:00;14.00;1.00
17284;DHT22;8760;52.248;20.952;2022-10-16T02:36:31;14.00;1.00
17284;DHT22;8760;52.248;20.952;2022-10-16T02:38:58;13.90;1.00
17284;DHT22;8760;52.248;20.952;2022-10-16T02:41:27;13.90;1.00
17284;DHT22;8760;52.248;20.952;2022-10-16T02:43:54;13.90;1.00
17284;DHT22;8760;52.248;20.952;2022-10-16T02:46:21;13.90;1.00
17284;DHT22;8760;52.248;20.952;2022-10-16T02:48:50;14.00;1.00
17284;DHT22;8760;52.248;20.952;2022-10-16T02:51:17;14.00;1.00
17284;DHT22;8760;52.248;20.952;2022-10-16T02:53:43;14.00;1.00
17284;DHT22;8760;52.248;20.952;2022-10-16T02:56:10;14.00;1.00
17284;DHT22;8760;52.248;20.952;2022-10-16T02:58:37;14.00;1.00
17284;DHT22;8760;52.248;20.952;2022-10-16T03:01:04;14.00;1.00
17284;DHT22;8760;52.248;20.952;2022-10-16T03:03:31;14.00;1.00
17284;DHT22;8760;52.248;20.952;2022-10-16T03:06:00;14.00;1.00
17284;DHT22;8760;52.248;20.952;2022-10-16T03:08:26;14.00;1.00
17284;DHT22;8760;52.248;20.952;2022-10-16T03:10:53;14.00;1.00
17284;DHT22;8760;52.248;20.952;2022-10-16T03:13:20;14.00;1.00
17284;DHT22;8760;52.248;20.952;2022-10-16T03:15:47;14.00;1.00
17284;DHT22;8760;52.248;20.952;2022-10-16T03:18:15;14.00;1.00
17284;DHT22;8760;52.248;20.952;2022-10-16T03:20:42;14.00;1.00
17284;DHT22;8760;52.248;20.952;2022-10-16T03:23:10;14.00;1.00
17284;DHT22;8760;52.248;20.952;2022-10-16T03:25:38;14.10;1.00
17284;DHT22;8760;52.248;20.952;2022-10-16T03:28:05;14.10;1.00
17284;DHT22;8760;52.248;20.952;2022-10-16T03:30:32;14.10;1.00
17284;DHT22;8760;52.248;20.952;2022-10-16T03:32:59;14.10;1.00
17284;DHT22;8760;52.248;20.952;2022-10-16T03:35:26;14.00;1.00
17284;DHT22;8760;52.248;20.952;2022-10-16T03:37:53;14.00;1.00
17284;DHT22;8760;52.248;20.952;2022-10-16T03:40:21;14.00;1.00
17284;DHT22;8760;52.248;20.952;2022-10-16T03:42:48;14.00;1.00
17284;DHT22;8760;52.248;20.952;2022-10-16T03:45:15;14.00;1.00
17284;DHT22;8760;52.248;20.952;2022-10-16T03:47:42;14.00;1.00
17284;DHT22;8760;52.248;20.952;2022-10-16T03:50:09;14.00;1.00
17284;DHT22;8760;52.248;20.952;2022-10-16T03:52:36;14.00;1.00
17284;DHT22;8760;52.248;20.952;2022-10-16T03:55:03;14.00;1.00
17284;DHT22;8760;52.248;20.952;2022-10-16T03:57:32;14.00;1.00
17284;DHT22;8760;52.248;20.952;2022-10-16T03:59:59;13.90;1.00
17284;DHT22;8760;52.248;20.952;2022-10-16T04:02:25;13.90;1.00
17284;DHT22;8760;52.248;20.952;2022-10-16T04:04:52;13.90;1.00
17284;DHT22;8760;52.248;20.952;2022-10-16T04:07:19;13.80;1.00
17284;DHT22;8760;52.248;20.952;2022-10-16T04:09:46;13.80;1.00
17284;DHT22;8760;52.248;20.952;2022-10-16T04:12:13;13.80;1.00
17284;DHT22;8760;52.248;20.952;2022-10-16T04:14:41;13.80;1.00
17284;DHT22;8760;52.248;20.952;2022-10-16T04:17:08;13.70;1.00
17284;DHT22;8760;52.248;20.952;2022-10-16T04:19:35;13.70;1.00
17284;DHT22;8760;52.248;20.952;2022-10-16T04:22:02;13.70;1.00
17284;DHT22;8760;52.248;20.952;2022-10-16T04:24:29;13.70;1.00
17284;DHT22;8760;52.248;20.952;2022-10-16T04:26:56;13.80;1.00
17284;DHT22;8760;52.248;20.952;2022-10-16T04:29:23;13.70;1.00
17284;DHT22;8760;52.248;20.952;2022-10-16T04:31:51;13.70;1.00
17284;DHT22;8760;52.248;20.952;2022-10-16T04:34:18;13.70;1.00
17284;DHT22;8760;52.248;20.952;2022-10-16T04:36:47;13.70;1.00
17284;DHT22;8760;52.248;20.952;2022-10-16T04:39:15;13.70;1.00
17284;DHT22;8760;52.248;20.952;2022-10-16T04:41:42;13.70;1.00
17284;DHT22;8760;52.248;20.952;2022-10-16T04:44:08;13.70;1.00
17284;DHT22;8760;52.248;20.952;2022-10-16T04:46:35;13.70;1.00
17284;DHT22;8760;52.248;20.952;2022-10-16T04:49:04;13.70;1.00
17284;DHT22;8760;52.248;20.952;2022-10-16T04:51:31;13.60;1.00
17284;DHT22;8760;52.248;20.952;2022-10-16T04:53:58;13.60;1.00
17284;DHT22;8760;52.248;20.952;2022-10-16T04:56:25;13.60;1.00
17284;DHT22;8760;52.248;20.952;2022-10-16T04:58:52;13.60;1.00
17284;DHT22;8760;52.248;20.952;2022-10-16T05:01:19;13.50;1.00
17284;DHT22;8760;52.248;20.952;2022-10-16T05:03:46;13.50;1.00
17284;DHT22;8760;52.248;20.952;2022-10-16T05:06:14;13.40;1.00
17284;DHT22;8760;52.248;20.952;2022-10-16T05:08:41;13.40;1.00
17284;DHT22;8760;52.248;20.952;2022-10-16T05:11:08;13.40;1.00
17284;DHT22;8760;52.248;20.952;2022-10-16T05:13:35;13.40;1.00
17284;DHT22;8760;52.248;20.952;2022-10-16T05:16:02;13.30;1.00
17284;DHT22;8760;52.248;20.952;2022-10-16T05:18:29;13.30;1.00
17284;DHT22;8760;52.248;20.952;2022-10-16T05:20:56;13.30;1.00
17284;DHT22;8760;52.248;20.952;2022-10-16T05:23:24;13.30;1.00
17284;DHT22;8760;52.248;20.952;2022-10-16T05:25:55;13.20;1.00
17284;DHT22;8760;52.248;20.952;2022-10-16T05:28:23;13.20;1.00
17284;DHT22;8760;52.248;20.952;2022-10-16T05:30:50;13.20;1.00
17284;DHT22;8760;52.248;20.952;2022-10-16T05:33:19;13.20;1.00
17284;DHT22;8760;52.248;20.952;2022-10-16T05:35:46;13.20;1.00
17284;DHT22;8760;52.248;20.952;2022-10-16T05:38:14;13.20;1.00
17284;DHT22;8760;52.248;20.952;2022-10-16T05:40:42;13.20;1.00
17284;DHT22;8760;52.248;20.952;2022-10-16T05:43:09;13.10;1.00
17284;DHT22;8760;52.248;20.952;2022-10-16T05:45:36;13.10;1.00
17284;DHT22;8760;52.248;20.952;2022-10-16T05:48:04;13.10;1.00
17284;DHT22;8760;52.248;20.952;2022-10-16T05:50:30;13.10;1.00
17284;DHT22;8760;52.248;20.952;2022-10-16T05:52:57;13.10;1.00
17284;DHT22;8760;52.248;20.952;2022-10-16T05:55:24;13.10;1.00
17284;DHT22;8760;52.248;20.952;2022-10-16T05:57:55;13.10;1.00
17284;DHT22;8760;52.248;20.952;2022-10-16T06:00:22;13.10;1.00
17284;DHT22;8760;52.248;20.952;2022-10-16T06:02:49;13.10;1.00
17284;DHT22;8760;52.248;20.952;2022-10-16T06:05:16;13.10;1.00
17284;DHT22;8760;52.248;20.952;2022-10-16T06:07:43;13.10;1.00
17284;DHT22;8760;52.248;20.952;2022-10-16T06:10:09;13.10;1.00
17284;DHT22;8760;52.248;20.952;2022-10-16T06:12:36;13.10;1.00
17284;DHT22;8760;52.248;20.952;2022-10-16T06:15:06;13.20;1.00
17284;DHT22;8760;52.248;20.952;2022-10-16T06:17:32;13.20;1.00
17284;DHT22;8760;52.248;20.952;2022-10-16T06:19:59;13.30;1.00
17284;DHT22;8760;52.248;20.952;2022-10-16T06:22:26;13.20;1.00
17284;DHT22;8760;52.248;20.952;2022-10-16T06:24:53;13.30;1.00
17284;DHT22;8760;52.248;20.952;2022-10-16T06:27:20;13.30;1.00
17284;DHT22;8760;52.248;20.952;2022-10-16T06:29:47;13.40;1.00
17284;DHT22;8760;52.248;20.952;2022-10-16T06:32:15;13.50;1.00
17284;DHT22;8760;52.248;20.952;2022-10-16T06:34:42;13.50;1.00
17284;DHT22;8760;52.248;20.952;2022-10-16T06:37:09;13.60;1.00
17284;DHT22;8760;52.248;20.952;2022-10-16T06:39:36;13.70;1.00
17284;DHT22;8760;52.248;20.952;2022-10-16T06:42:03;13.70;1.00
17284;DHT22;8760;52.248;20.952;2022-10-16T06:44:30;13.80;1.00
17284;DHT22;8760;52.248;20.952;2022-10-16T06:46:57;13.90;1.00
17284;DHT22;8760;52.248;20.952;2022-10-16T06:49:25;14.00;1.00
17284;DHT22;8760;52.248;20.952;2022-10-16T06:51:54;14.40;1.00
17284;DHT22;8760;52.248;20.952;2022-10-16T06:54:21;15.00;99.90
17284;DHT22;8760;52.248;20.952;2022-10-16T06:56:47;15.60;1.00
17284;DHT22;8760;52.248;20.952;2022-10-16T06:59:14;16.10;1.00
17284;DHT22;8760;52.248;20.952;2022-10-16T07:01:41;16.50;99.90
17284;DHT22;8760;52.248;20.952;2022-10-16T07:04:08;16.60;99.90
17284;DHT22;8760;52.248;20.952;2022-10-16T07:06:36;16.40;1.00
17284;DHT22;8760;52.248;20.952;2022-10-16T07:09:07;16.00;1.00
17284;DHT22;8760;52.248;20.952;2022-10-16T07:11:37;15.80;1.00
17284;DHT22;8760;52.248;20.952;2022-10-16T07:14:04;15.60;42.30
17284;DHT22;8760;52.248;20.952;2022-10-16T07:16:32;15.40;1.00
17284;DHT22;8760;52.248;20.952;2022-10-16T07:19:01;15.20;99.90
17284;DHT22;8760;52.248;20.952;2022-10-16T07:21:29;15.10;1.00
17284;DHT22;8760;52.248;20.952;2022-10-16T07:24:02;14.90;1.00
17284;DHT22;8760;52.248;20.952;2022-10-16T07:26:32;14.80;1.00
17284;DHT22;8760;52.248;20.952;2022-10-16T07:28:59;14.60;1.00
17284;DHT22;8760;52.248;20.952;2022-10-16T07:31:27;14.60;99.90
17284;DHT22;8760;52.248;20.952;2022-10-16T07:33:54;14.60;99.90
17284;DHT22;8760;52.248;20.952;2022-10-16T07:36:22;14.70;99.90
17284;DHT22;8760;52.248;20.952;2022-10-16T07:38:49;14.80;93.30
17284;DHT22;8760;52.248;20.952;2022-10-16T07:41:18;14.80;99.90
17284;DHT22;8760;52.248;20.952;2022-10-16T07:43:46;15.20;1.00
17284;DHT22;8760;52.248;20.952;2022-10-16T07:46:13;15.40;1.00
17284;DHT22;8760;52.248;20.952;2022-10-16T07:48:42;15.90;1.00
17284;DHT22;8760;52.248;20.952;2022-10-16T07:51:12;16.80;99.90
17284;DHT22;8760;52.248;20.952;2022-10-16T07:53:39;17.70;99.90
17284;DHT22;8760;52.248;20.952;2022-10-16T07:56:07;18.60;99.90
17284;DHT22;8760;52.248;20.952;2022-10-16T07:58:36;19.30;1.00
17284;DHT22;8760;52.248;20.952;2022-10-16T08:01:04;20.10;99.90
17284;DHT22;8760;52.248;20.952;2022-10-16T08:03:31;20.60;38.00
17284;DHT22;8760;52.248;20.952;2022-10-16T08:05:59;20.50;1.00
17284;DHT22;8760;52.248;20.952;2022-10-16T08:08:29;20.70;1.00
17284;DHT22;8760;52.248;20.952;2022-10-16T08:10:56;20.90;1.00
17284;DHT22;8760;52.248;20.952;2022-10-16T08:13:23;21.20;1.00
17284;DHT22;8760;52.248;20.952;2022-10-16T08:15:51;21.90;1.00
17284;DHT22;8760;52.248;20.952;2022-10-16T08:18:20;21.90;1.00
17284;DHT22;8760;52.248;20.952;2022-10-16T08:20:47;21.80;1.00
17284;DHT22;8760;52.248;20.952;2022-10-16T08:23:14;21.40;1.00
17284;DHT22;8760;52.248;20.952;2022-10-16T08:25:41;20.60;1.00
17284;DHT22;8760;52.248;20.952;2022-10-16T08:28:10;20.00;1.00
17284;DHT22;8760;52.248;20.952;2022-10-16T08:30:37;19.70;1.00
17284;DHT22;8760;52.248;20.952;2022-10-16T08:33:05;19.30;87.00
17284;DHT22;8760;52.248;20.952;2022-10-16T08:35:32;19.30;99.90
17284;DHT22;8760;52.248;20.952;2022-10-16T08:37:59;19.30;99.90
17284;DHT22;8760;52.248;20.952;2022-10-16T08:40:28;19.30;99.90
17284;DHT22;8760;52.248;20.952;2022-10-16T08:43:20;19.10;99.90
17284;DHT22;8760;52.248;20.952;2022-10-16T08:46:04;18.90;99.90
17284;DHT22;8760;52.248;20.952;2022-10-16T08:48:42;18.80;99.90
17284;DHT22;8760;52.248;20.952;2022-10-16T08:51:14;18.70;1.00
17284;DHT22;8760;52.248;20.952;2022-10-16T08:53:48;18.70;1.00
17284;DHT22;8760;52.248;20.952;2022-10-16T08:56:17;19.00;1.00
17284;DHT22;8760;52.248;20.952;2022-10-16T08:58:45;19.50;99.90
17284;DHT22;8760;52.248;20.952;2022-10-16T09:01:14;19.80;99.90
17284;DHT22;8760;52.248;20.952;2022-10-16T09:04:03;19.70;99.90
17284;DHT22;8760;52.248;20.952;2022-10-16T09:06:40;19.70;99.90
17284;DHT22;8760;52.248;20.952;2022-10-16T09:09:27;19.70;99.90
17284;DHT22;8760;52.248;20.952;2022-10-16T09:11:59;19.70;99.90
17284;DHT22;8760;52.248;20.952;2022-10-16T09:17:32;19.90;99.90
17284;DHT22;8760;52.248;20.952;2022-10-16T09:20:13;20.30;99.90
17284;DHT22;8760;52.248;20.952;2022-10-16T09:22:44;20.60;97.90
17284;DHT22;8760;52.248;20.952;2022-10-16T09:25:13;20.90;1.00
17284;DHT22;8760;52.248;20.952;2022-10-16T09:27:40;21.20;1.00
17284;DHT22;8760;52.248;20.952;2022-10-16T09:30:12;21.30;1.00
17284;DHT22;8760;52.248;20.952;2022-10-16T09:32:40;20.90;1.00
17284;DHT22;8760;52.248;20.952;2022-10-16T09:35:15;20.60;1.00
17284;DHT22;8760;52.248;20.952;2022-10-16T09:37:45;20.50;1.00
17284;DHT22;8760;52.248;20.952;2022-10-16T09:40:23;20.40;1.00
17284;DHT22;8760;52.248;20.952;2022-10-16T09:42:52;20.30;1.00
17284;DHT22;8760;52.248;20.952;2022-10-16T09:45:22;20.20;1.00
17284;DHT22;8760;52.248;20.952;2022-10-16T09:47:50;20.00;34.20
17284;DHT22;8760;52.248;20.952;2022-10-16T09:50:23;19.90;99.90
17284;DHT22;8760;52.248;20.952;2022-10-16T09:53:03;19.90;99.90
17284;DHT22;8760;52.248;20.952;2022-10-16T09:55:30;20.00;99.90
17284;DHT22;8760;52.248;20.952;2022-10-16T09:57:57;20.60;96.70
17284;DHT22;8760;52.248;20.952;2022-10-16T10:00:24;21.10;1.00
17284;DHT22;8760;52.248;20.952;2022-10-16T10:02:52;21.40;1.00
17284;DHT22;8760;52.248;20.952;2022-10-16T10:05:23;21.60;1.00
17284;DHT22;8760;52.248;20.952;2022-10-16T10:07:55;21.60;1.00
17284;DHT22;8760;52.248;20.952;2022-10-16T10:10:24;21.40;1.00
17284;DHT22;8760;52.248;20.952;2022-10-16T10:12:52;21.40;1.00
17284;DHT22;8760;52.248;20.952;2022-10-16T10:15:19;21.60;1.00
17284;DHT22;8760;52.248;20.952;2022-10-16T10:17:49;22.00;1.00
17284;DHT22;8760;52.248;20.952;2022-10-16T10:20:25;22.20;1.00
17284;DHT22;8760;52.248;20.952;2022-10-16T10:22:53;22.20;1.00
17284;DHT22;8760;52.248;20.952;2022-10-16T10:25:35;22.20;1.00
17284;DHT22;8760;52.248;20.952;2022-10-16T10:30:57;22.10;1.00
17284;DHT22;8760;52.248;20.952;2022-10-16T10:33:31;21.80;1.00
17284;DHT22;8760;52.248;20.952;2022-10-16T10:36:10;21.50;1.00
17284;DHT22;8760;52.248;20.952;2022-10-16T10:38:45;21.30;1.00
17284;DHT22;8760;52.248;20.952;2022-10-16T10:41:26;20.90;1.00
17284;DHT22;8760;52.248;20.952;2022-10-16T10:44:02;20.50;1.00
17284;DHT22;8760;52.248;20.952;2022-10-16T10:46:35;20.40;1.00
17284;DHT22;8760;52.248;20.952;2022-10-16T10:49:20;20.20;1.00
17284;DHT22;8760;52.248;20.952;2022-10-16T10:52:02;20.00;2.30
17284;DHT22;8760;52.248;20.952;2022-10-16T10:54:36;19.90;57.40
17284;DHT22;8760;52.248;20.952;2022-10-16T10:57:10;19.90;99.90
17284;DHT22;8760;52.248;20.952;2022-10-16T10:59:53;19.80;99.90
17284;DHT22;8760;52.248;20.952;2022-10-16T11:02:26;19.90;99.90
17284;DHT22;8760;52.248;20.952;2022-10-16T11:08:00;19.80;99.90
17284;DHT22;8760;52.248;20.952;2022-10-16T11:10:33;19.80;99.90
17284;DHT22;8760;52.248;20.952;2022-10-16T11:13:10;19.90;99.90
17284;DHT22;8760;52.248;20.952;2022-10-16T11:15:43;19.80;99.90
17284;DHT22;8760;52.248;20.952;2022-10-16T11:18:15;19.80;99.90
17284;DHT22;8760;52.248;20.952;2022-10-16T11:20:47;19.80;99.90
17284;DHT22;8760;52.248;20.952;2022-10-16T11:23:23;19.80;99.90
17284;DHT22;8760;52.248;20.952;2022-10-16T11:25:53;20.00;99.90
17284;DHT22;8760;52.248;20.952;2022-10-16T11:28:26;20.30;99.90
17284;DHT22;8760;52.248;20.952;2022-10-16T11:30:57;20.30;99.90
17284;DHT22;8760;52.248;20.952;2022-10-16T11:33:32;20.30;99.90
17284;DHT22;8760;52.248;20.952;2022-10-16T11:36:07;20.30;99.90
17284;DHT22;8760;52.248;20.952;2022-10-16T11:38:43;20.20;99.90
17284;DHT22;8760;52.248;20.952;2022-10-16T11:41:17;20.10;99.90
17284;DHT22;8760;52.248;20.952;2022-10-16T11:43:52;20.00;99.90
17284;DHT22;8760;52.248;20.952;2022-10-16T11:46:22;20.00;99.90
17284;DHT22;8760;52.248;20.952;2022-10-16T11:48:55;20.10;99.90
17284;DHT22;8760;52.248;20.952;2022-10-16T11:51:31;20.20;99.90
17284;DHT22;8760;52.248;20.952;2022-10-16T11:54:07;20.50;99.90
17284;DHT22;8760;52.248;20.952;2022-10-16T11:56:38;20.60;99.90
17284;DHT22;8760;52.248;20.952;2022-10-16T11:59:11;20.50;99.90
17284;DHT22;8760;52.248;20.952;2022-10-16T12:01:46;20.40;99.90
17284;DHT22;8760;52.248;20.952;2022-10-16T12:04:19;20.40;99.90
17284;DHT22;8760;52.248;20.952;2022-10-16T12:06:52;20.30;99.90
17284;DHT22;8760;52.248;20.952;2022-10-16T12:09:25;20.30;99.90
17284;DHT22;8760;52.248;20.952;2022-10-16T12:11:53;20.30;99.90
17284;DHT22;8760;52.248;20.952;2022-10-16T12:14:36;20.10;99.90
17284;DHT22;8760;52.248;20.952;2022-10-16T12:17:23;20.10;99.90
17284;DHT22;8760;52.248;20.952;2022-10-16T12:19:58;20.20;99.90
17284;DHT22;8760;52.248;20.952;2022-10-16T12:22:28;20.20;99.90
17284;DHT22;8760;52.248;20.952;2022-10-16T12:24:57;20.30;99.90
17284;DHT22;8760;52.248;20.952;2022-10-16T12:27:28;20.40;99.90
17284;DHT22;8760;52.248;20.952;2022-10-16T12:29:57;20.30;99.90
17284;DHT22;8760;52.248;20.952;2022-10-16T12:32:29;20.20;99.90
17284;DHT22;8760;52.248;20.952;2022-10-16T12:34:57;20.10;99.90
17284;DHT22;8760;52.248;20.952;2022-10-16T12:37:27;20.10;99.90
17284;DHT22;8760;52.248;20.952;2022-10-16T12:39:56;20.10;99.90
17284;DHT22;8760;52.248;20.952;2022-10-16T12:42:33;20.10;99.90
17284;DHT22;8760;52.248;20.952;2022-10-16T12:45:01;20.10;99.90
17284;DHT22;8760;52.248;20.952;2022-10-16T12:47:48;20.00;99.90
17284;DHT22;8760;52.248;20.952;2022-10-16T12:50:29;20.00;99.90
17284;DHT22;8760;52.248;20.952;2022-10-16T12:52:57;19.90;99.90
17284;DHT22;8760;52.248;20.952;2022-10-16T12:55:26;20.00;99.90
17284;DHT22;8760;52.248;20.952;2022-10-16T12:58:14;19.90;99.90
17284;DHT22;8760;52.248;20.952;2022-10-16T13:00:45;19.90;99.90
17284;DHT22;8760;52.248;20.952;2022-10-16T13:03:40;19.80;99.90
17284;DHT22;8760;52.248;20.952;2022-10-16T13:06:20;19.70;99.90
17284;DHT22;8760;52.248;20.952;2022-10-16T13:09:02;19.60;1.00
17284;DHT22;8760;52.248;20.952;2022-10-16T13:11:51;19.50;1.00
17284;DHT22;8760;52.248;20.952;2022-10-16T13:14:46;19.50;1.00
17284;DHT22;8760;52.248;20.952;2022-10-16T13:17:22;19.50;1.00
17284;DHT22;8760;52.248;20.952;2022-10-16T13:20:00;19.40;1.00
17284;DHT22;8760;52.248;20.952;2022-10-16T13:22:33;19.40;1.00
17284;DHT22;8760;52.248;20.952;2022-10-16T13:25:16;19.40;15.00
17284;DHT22;8760;52.248;20.952;2022-10-16T13:27:53;19.30;99.90
17284;DHT22;8760;52.248;20.952;2022-10-16T13:30:23;19.30;99.90
17284;DHT22;8760;52.248;20.952;2022-10-16T13:32:56;19.30;99.90
17284;DHT22;8760;52.248;20.952;2022-10-16T13:35:26;19.30;1.00
17284;DHT22;8760;52.248;20.952;2022-10-16T13:38:11;19.30;1.00
17284;DHT22;8760;52.248;20.952;2022-10-16T13:40:49;19.20;1.00
17284;DHT22;8760;52.248;20.952;2022-10-16T13:43:19;19.30;1.00
17284;DHT22;8760;52.248;20.952;2022-10-16T13:45:58;19.30;1.00
17284;DHT22;8760;52.248;20.952;2022-10-16T13:48:27;19.30;1.00
17284;DHT22;8760;52.248;20.952;2022-10-16T13:51:03;19.30;1.00
17284;DHT22;8760;52.248;20.952;2022-10-16T13:53:31;19.30;79.60
17284;DHT22;8760;52.248;20.952;2022-10-16T13:55:58;19.30;1.00
17284;DHT22;8760;52.248;20.952;2022-10-16T13:58:28;19.30;1.00
17284;DHT22;8760;52.248;20.952;2022-10-16T14:00:57;19.30;99.90
17284;DHT22;8760;52.248;20.952;2022-10-16T14:03:25;19.30;99.90
17284;DHT22;8760;52.248;20.952;2022-10-16T14:05:54;19.30;6.70
17284;DHT22;8760;52.248;20.952;2022-10-16T14:08:22;19.30;96.10
17284;DHT22;8760;52.248;20.952;2022-10-16T14:10:51;19.30;99.90
17284;DHT22;8760;52.248;20.952;2022-10-16T14:13:24;19.30;99.90
17284;DHT22;8760;52.248;20.952;2022-10-16T14:15:54;19.30;99.90
17284;DHT22;8760;52.248;20.952;2022-10-16T14:18:25;19.30;99.90
17284;DHT22;8760;52.248;20.952;2022-10-16T14:20:53;19.30;1.00
17284;DHT22;8760;52.248;20.952;2022-10-16T14:23:23;19.30;99.90
17284;DHT22;8760;52.248;20.952;2022-10-16T14:26:05;19.30;99.90
17284;DHT22;8760;52.248;20.952;2022-10-16T14:28:32;19.40;99.90
17284;DHT22;8760;52.248;20.952;2022-10-16T14:31:02;19.30;99.90
17284;DHT22;8760;52.248;20.952;2022-10-16T14:33:44;19.40;99.90
17284;DHT22;8760;52.248;20.952;2022-10-16T14:36:13;19.30;99.90
17284;DHT22;8760;52.248;20.952;2022-10-16T14:38:42;19.30;99.90
17284;DHT22;8760;52.248;20.952;2022-10-16T14:41:09;19.30;99.90
17284;DHT22;8760;52.248;20.952;2022-10-16T14:43:38;19.30;1.00
17284;DHT22;8760;52.248;20.952;2022-10-16T14:46:13;19.30;99.90
17284;DHT22;8760;52.248;20.952;2022-10-16T14:48:41;19.20;1.00
17284;DHT22;8760;52.248;20.952;2022-10-16T14:51:13;19.30;1.00
17284;DHT22;8760;52.248;20.952;2022-10-16T14:53:41;19.30;1.00
17284;DHT22;8760;52.248;20.952;2022-10-16T14:56:09;19.30;1.00
17284;DHT22;8760;52.248;20.952;2022-10-16T14:58:41;19.20;1.00
17284;DHT22;8760;52.248;20.952;2022-10-16T15:01:09;19.20;1.00
17284;DHT22;8760;52.248;20.952;2022-10-16T15:03:37;19.20;99.90
17284;DHT22;8760;52.248;20.952;2022-10-16T15:06:09;19.20;99.90
17284;DHT22;8760;52.248;20.952;2022-10-16T15:08:37;19.10;1.00
17284;DHT22;8760;52.248;20.952;2022-10-16T15:11:04;19.10;24.70
17284;DHT22;8760;52.248;20.952;2022-10-16T15:13:32;19.10;2.50
17284;DHT22;8760;52.248;20.952;2022-10-16T15:15:59;19.10;12.80
17284;DHT22;8760;52.248;20.952;2022-10-16T15:18:27;19.10;99.90
17284;DHT22;8760;52.248;20.952;2022-10-16T15:20:54;19.00;1.00
17284;DHT22;8760;52.248;20.952;2022-10-16T15:23:22;19.00;1.00
17284;DHT22;8760;52.248;20.952;2022-10-16T15:25:50;18.90;99.80
17284;DHT22;8760;52.248;20.952;2022-10-16T15:28:19;18.80;99.90
17284;DHT22;8760;52.248;20.952;2022-10-16T15:30:48;18.90;99.90
17284;DHT22;8760;52.248;20.952;2022-10-16T15:33:17;18.90;1.00
17284;DHT22;8760;52.248;20.952;2022-10-16T15:35:48;18.80;1.00
17284;DHT22;8760;52.248;20.952;2022-10-16T15:38:16;18.80;1.00
17284;DHT22;8760;52.248;20.952;2022-10-16T15:40:43;18.80;1.00
17284;DHT22;8760;52.248;20.952;2022-10-16T15:43:11;18.80;99.90
17284;DHT22;8760;52.248;20.952;2022-10-16T15:45:38;18.70;1.00
17284;DHT22;8760;52.248;20.952;2022-10-16T15:48:05;18.60;95.10
17284;DHT22;8760;52.248;20.952;2022-10-16T15:50:33;18.70;99.90
17284;DHT22;8760;52.248;20.952;2022-10-16T15:53:01;18.60;99.90
17284;DHT22;8760;52.248;20.952;2022-10-16T15:55:28;18.60;99.90
17284;DHT22;8760;52.248;20.952;2022-10-16T15:57:55;18.60;1.00
17284;DHT22;8760;52.248;20.952;2022-10-16T16:00:22;18.60;1.00
17284;DHT22;8760;52.248;20.952;2022-10-16T16:02:52;18.60;99.90
17284;DHT22;8760;52.248;20.952;2022-10-16T16:05:20;18.60;99.90
17284;DHT22;8760;52.248;20.952;2022-10-16T16:07:48;18.60;99.90